Time;durP1;ratioP1;P1;durP2;ratioP2;P2;SDS_P1;SDS_P2;PMS_P1;PMS_P2;Temp;Humidity;BMP_temperature;BMP_pressure;BME280_temperature;BME280_humidity;BME280_pressure;Samples;Min_cycle;Max_cycle;Signal;HPM_P1;HPM_P2
2020/12/01 00:01:29;;;;;;;15.18;8.70;;;0.70;99.90;;;;;;5090197;28;20588;-74
2020/12/01 00:03:55;;;;;;;11.60;7.13;;;0.50;99.90;;;;;;5088520;28;20477;-74
2020/12/01 00:06:21;;;;;;;13.57;7.75;;;1.30;99.90;;;;;;5090398;28;20385;-73
2020/12/01 00:08:46;;;;;;;9.90;7.53;;;1.20;99.90;;;;;;5089823;28;20427;-77
2020/12/01 00:11:14;;;;;;;14.27;7.68;;;1.50;99.90;;;;;;5089970;28;20909;-74
2020/12/01 00:13:41;;;;;;;9.30;6.70;;;0.70;99.90;;;;;;5091278;28;20386;-74
2020/12/01 00:16:10;;;;;;;7.25;5.80;;;0.60;99.90;;;;;;5093212;28;20378;-74
2020/12/01 00:18:36;;;;;;;9.45;6.22;;;1.00;99.90;;;;;;5094269;28;20471;-74
2020/12/01 00:21:02;;;;;;;11.80;7.85;;;2.40;99.90;;;;;;5093475;28;20900;-74
2020/12/01 00:23:28;;;;;;;10.40;7.67;;;0.50;99.90;;;;;;5094346;28;20941;-74
2020/12/01 00:25:53;;;;;;;11.13;7.50;;;1.60;99.90;;;;;;5093340;28;20396;-74
2020/12/01 00:28:19;;;;;;;12.30;7.20;;;1.50;99.90;;;;;;5092594;28;20393;-73
2020/12/01 00:30:45;;;;;;;13.00;7.43;;;0.50;99.90;;;;;;5093695;28;20476;-77
2020/12/01 00:33:11;;;;;;;11.27;7.10;;;0.90;99.90;;;;;;5092903;28;20421;-74
2020/12/01 00:35:37;;;;;;;9.02;6.80;;;2.80;99.90;;;;;;5093641;28;20374;-74
2020/12/01 00:38:03;;;;;;;9.02;6.53;;;0.40;99.90;;;;;;5092700;28;20773;-73
2020/12/01 00:40:29;;;;;;;11.07;6.97;;;0.90;99.90;;;;;;5093653;28;20381;-73
2020/12/01 00:42:54;;;;;;;12.48;7.57;;;0.70;99.90;;;;;;5092669;28;20781;-72
2020/12/01 00:45:20;;;;;;;9.25;6.40;;;1.40;99.90;;;;;;5093491;28;20462;-73
2020/12/01 00:47:46;;;;;;;10.70;6.40;;;1.00;99.90;;;;;;5093235;28;20511;-74
2020/12/01 00:50:16;;;;;;;10.90;6.80;;;0.70;99.90;;;;;;5092782;28;20370;-71
2020/12/01 00:52:42;;;;;;;9.43;6.50;;;0.80;99.90;;;;;;5093075;28;20493;-72
2020/12/01 00:55:07;;;;;;;9.03;6.63;;;0.90;99.90;;;;;;5092509;28;20901;-72
2020/12/01 00:57:33;;;;;;;10.73;5.78;;;2.90;99.90;;;;;;5093177;28;20850;-72
2020/12/01 00:59:59;;;;;;;9.55;5.90;;;2.00;99.90;;;;;;5092365;28;20382;-72
2020/12/01 01:02:24;;;;;;;9.10;5.67;;;1.40;99.90;;;;;;5093181;28;20401;-72
2020/12/01 01:04:50;;;;;;;10.30;6.77;;;0.90;99.90;;;;;;5092264;28;20382;-75
2020/12/01 01:07:18;;;;;;;8.75;5.85;;;3.00;99.90;;;;;;5092926;28;20739;-72
2020/12/01 01:09:45;;;;;;;8.02;5.90;;;2.00;99.90;;;;;;5092876;28;20735;-72
2020/12/01 01:12:10;;;;;;;8.05;5.47;;;2.50;99.90;;;;;;5090654;28;20394;-72
2020/12/01 01:14:37;;;;;;;8.13;5.73;;;1.00;99.90;;;;;;5092966;28;20382;-72
2020/12/01 01:17:03;;;;;;;9.05;5.72;;;2.00;99.90;;;;;;5091910;28;20405;-72
2020/12/01 01:19:28;;;;;;;7.22;5.47;;;2.30;99.90;;;;;;5092773;28;20847;-72
2020/12/01 01:21:54;;;;;;;7.80;5.40;;;2.90;99.90;;;;;;5092032;28;20382;-72
2020/12/01 01:24:20;;;;;;;9.50;6.40;;;1.40;99.90;;;;;;5092265;28;20401;-72
2020/12/01 01:26:48;;;;;;;8.53;5.33;;;2.70;99.90;;;;;;5092496;28;20854;-72
2020/12/01 01:29:14;;;;;;;8.93;5.53;;;1.20;99.90;;;;;;5091917;28;20370;-72
2020/12/01 01:31:40;;;;;;;7.65;6.10;;;2.70;99.90;;;;;;5092404;28;20429;-72
2020/12/01 01:34:05;;;;;;;9.20;6.00;;;0.90;99.90;;;;;;5090278;28;20405;-72
2020/12/01 01:36:35;;;;;;;8.97;5.53;;;3.50;99.90;;;;;;5092136;28;20388;-72
2020/12/01 01:39:02;;;;;;;8.50;5.90;;;1.20;99.90;;;;;;5091260;28;20726;-72
2020/12/01 01:41:30;;;;;;;8.57;6.50;;;1.20;99.90;;;;;;5092371;28;20393;-72
2020/12/01 01:43:56;;;;;;;7.40;5.38;;;1.40;99.90;;;;;;5091340;28;20378;-72
2020/12/01 01:46:36;;;;;;;9.70;5.97;;;3.10;99.90;;;;;;5090710;28;20439;-73
2020/12/01 01:49:05;;;;;;;6.60;4.95;;;3.80;99.90;;;;;;5091017;28;20386;-73
2020/12/01 01:51:33;;;;;;;7.90;5.70;;;1.40;99.90;;;;;;5092111;28;20441;-71
2020/12/01 01:53:59;;;;;;;9.02;6.03;;;2.70;99.90;;;;;;5091209;28;20461;-72
2020/12/01 01:56:34;;;;;;;9.87;6.00;;;1.40;99.90;;;;;;5091640;28;20866;-71
2020/12/01 01:59:01;;;;;;;9.95;6.30;;;1.90;99.90;;;;;;5091186;28;20803;-72
2020/12/01 02:01:29;;;;;;;9.15;5.57;;;1.40;99.90;;;;;;5091593;28;20425;-72
2020/12/01 02:04:07;;;;;;;10.35;6.40;;;1.50;99.90;;;;;;5089837;28;20386;-76
2020/12/01 02:06:41;;;;;;;8.20;5.95;;;1.20;99.90;;;;;;5091781;28;20375;-71
2020/12/01 02:09:42;;;;;;;8.10;5.07;;;1.10;99.90;;;;;;5091073;28;20761;-72
2020/12/01 02:12:10;;;;;;;8.40;5.50;;;1.80;99.90;;;;;;5079728;28;20424;-72
2020/12/01 02:14:45;;;;;;;6.27;4.60;;;4.60;99.90;;;;;;5091689;28;20540;-72
2020/12/01 02:17:29;;;;;;;7.53;4.65;;;3.80;99.90;;;;;;5089611;28;20824;-72
2020/12/01 02:19:58;;;;;;;5.68;4.10;;;3.60;99.90;;;;;;5090723;28;20851;-76
2020/12/01 02:22:28;;;;;;;6.15;3.80;;;2.90;99.90;;;;;;5091273;28;20386;-73
2020/12/01 02:24:55;;;;;;;6.00;4.40;;;4.40;99.90;;;;;;5091086;28;20733;-76
2020/12/01 02:27:24;;;;;;;5.47;3.88;;;2.30;99.90;;;;;;5091284;28;20374;-73
2020/12/01 02:29:52;;;;;;;7.50;4.80;;;5.50;99.90;;;;;;5091404;28;20374;-72
2020/12/01 02:32:19;;;;;;;4.72;3.75;;;2.70;99.90;;;;;;5090739;28;20434;-73
2020/12/01 02:34:47;;;;;;;6.72;4.28;;;4.20;99.90;;;;;;5090911;28;20374;-73
2020/12/01 02:37:20;;;;;;;7.80;4.70;;;4.00;99.90;;;;;;5089566;28;21288;-73
2020/12/01 02:39:46;;;;;;;8.55;4.90;;;3.80;99.90;;;;;;5091165;28;20414;-73
2020/12/01 02:42:22;;;;;;;6.37;5.07;;;1.70;99.90;;;;;;5090118;28;20440;-72
2020/12/01 02:44:48;;;;;;;7.20;4.90;;;3.30;99.90;;;;;;5091049;28;20672;-73
2020/12/01 02:47:14;;;;;;;10.43;6.25;;;3.70;99.90;;;;;;5089982;28;20382;-73
2020/12/01 02:49:39;;;;;;;8.13;5.50;;;4.10;99.90;;;;;;5090970;28;20722;-72
2020/12/01 02:52:05;;;;;;;9.10;5.70;;;3.00;99.90;;;;;;5090341;28;20401;-72
2020/12/01 02:54:31;;;;;;;6.57;4.83;;;1.70;99.90;;;;;;5090628;28;20377;-72
2020/12/01 02:56:57;;;;;;;8.48;5.38;;;2.00;99.90;;;;;;5090117;28;20393;-76
2020/12/01 02:59:22;;;;;;;9.82;5.90;;;1.90;99.90;;;;;;5090610;28;20862;-72
2020/12/01 03:01:48;;;;;;;10.40;5.30;;;5.20;99.90;;;;;;5091044;28;20390;-72
2020/12/01 03:04:14;;;;;;;8.43;5.50;;;1.70;99.90;;;;;;5089974;28;20381;-72
2020/12/01 03:06:39;;;;;;;9.50;5.90;;;4.00;99.90;;;;;;5089249;28;20374;-72
2020/12/01 03:09:07;;;;;;;7.38;5.63;;;3.10;99.90;;;;;;5089526;28;20405;-72
2020/12/01 03:11:33;;;;;;;8.07;4.78;;;2.00;99.90;;;;;;5090613;28;20872;-72
2020/12/01 03:13:59;;;;;;;6.78;5.43;;;0.80;99.90;;;;;;5089610;28;20388;-73
2020/12/01 03:16:25;;;;;;;11.83;6.00;;;1.80;99.90;;;;;;5090656;28;20456;-73
2020/12/01 03:18:50;;;;;;;8.65;5.50;;;2.00;99.90;;;;;;5090242;28;20385;-73
2020/12/01 03:21:16;;;;;;;9.73;5.38;;;2.10;99.90;;;;;;5088576;28;20393;-73
2020/12/01 03:23:43;;;;;;;7.40;4.70;;;4.70;99.90;;;;;;5090254;28;20382;-73
2020/12/01 03:26:12;;;;;;;7.80;5.10;;;2.00;99.90;;;;;;5088571;28;20397;-73
2020/12/01 03:28:38;;;;;;;5.25;4.53;;;2.20;99.90;;;;;;5090635;28;20381;-73
2020/12/01 03:31:04;;;;;;;8.48;4.90;;;3.70;99.90;;;;;;5089659;28;20400;-74
2020/12/01 03:33:30;;;;;;;5.20;3.60;;;2.10;99.90;;;;;;5089996;28;20394;-74
2020/12/01 03:35:56;;;;;;;3.30;2.20;;;4.40;99.90;;;;;;5090318;28;20377;-74
2020/12/01 03:38:22;;;;;;;2.92;2.22;;;3.30;99.90;;;;;;5089505;28;20392;-74
2020/12/01 03:40:47;;;;;;;2.20;1.60;;;3.40;99.90;;;;;;5090580;28;20419;-74
2020/12/01 03:43:14;;;;;;;2.43;1.67;;;4.20;99.90;;;;;;5089570;28;20382;-74
2020/12/01 03:45:39;;;;;;;1.70;1.35;;;3.30;99.90;;;;;;5090441;28;20476;-75
2020/12/01 03:48:06;;;;;;;1.38;0.95;;;6.00;99.90;;;;;;5091309;28;20527;-74
2020/12/01 03:50:32;;;;;;;2.40;1.30;;;4.70;99.90;;;;;;5094630;28;20382;-74
2020/12/01 03:52:57;;;;;;;1.40;1.10;;;6.40;99.90;;;;;;5094582;28;20445;-77
2020/12/01 03:55:25;;;;;;;1.48;1.17;;;3.90;99.90;;;;;;5094295;28;20412;-74
2020/12/01 03:57:51;;;;;;;1.38;0.90;;;4.50;99.90;;;;;;5094990;28;20382;-74
2020/12/01 04:00:21;;;;;;;2.78;1.10;;;5.00;99.90;;;;;;5093416;28;20882;-74
2020/12/01 04:02:47;;;;;;;1.60;1.10;;;4.50;99.90;;;;;;5094521;28;20382;-74
2020/12/01 04:05:14;;;;;;;1.13;0.95;;;4.90;99.90;;;;;;5092355;28;20385;-75
2020/12/01 04:07:40;;;;;;;1.92;1.10;;;4.80;99.90;;;;;;5094202;28;20381;-74
2020/12/01 04:10:06;;;;;;;1.80;1.10;;;;;;;;;;5093367;28;20382;-74
2020/12/01 04:12:32;;;;;;;1.90;1.00;;;3.90;99.90;;;;;;5093022;28;20501;-74
2020/12/01 04:15:00;;;;;;;1.83;1.02;;;6.00;99.90;;;;;;5093905;28;20811;-76
2020/12/01 04:17:26;;;;;;;2.33;1.25;;;4.00;99.90;;;;;;5093751;28;20370;-74
2020/12/01 04:19:51;;;;;;;1.70;1.38;;;5.70;99.90;;;;;;5094208;28;20389;-73
2020/12/01 04:22:17;;;;;;;1.80;1.20;;;5.90;99.90;;;;;;5093203;28;20831;-74
2020/12/01 04:24:43;;;;;;;1.40;0.90;;;4.70;99.90;;;;;;5093974;28;20378;-74
2020/12/01 04:27:10;;;;;;;1.50;1.07;;;4.20;99.90;;;;;;5093149;28;20428;-73
2020/12/01 04:29:36;;;;;;;1.60;1.40;;;4.30;99.90;;;;;;5094112;28;20382;-74
2020/12/01 04:32:03;;;;;;;2.10;1.20;;;4.10;99.90;;;;;;5093350;28;20468;-76
2020/12/01 04:34:29;;;;;;;1.50;1.13;;;6.40;99.90;;;;;;5093688;28;20405;-73
2020/12/01 04:36:54;;;;;;;2.38;1.92;;;4.90;99.90;;;;;;5094111;28;20371;-73
2020/12/01 04:39:20;;;;;;;2.45;1.20;;;4.70;99.90;;;;;;5092976;28;20443;-73
2020/12/01 04:41:46;;;;;;;2.60;2.00;;;5.80;99.90;;;;;;5093776;28;20378;-73
2020/12/01 04:44:29;;;;;;;2.10;1.40;;;4.00;99.90;;;;;;5092600;28;20435;-73
2020/12/01 04:47:02;;;;;;;2.78;2.00;;;4.00;99.90;;;;;;5094055;28;20389;-74
2020/12/01 04:49:42;;;;;;;2.63;1.80;;;4.10;99.90;;;;;;5092997;28;20382;-73
2020/12/01 04:52:33;;;;;;;2.20;1.67;;;4.50;99.90;;;;;;5091530;28;20892;-75
2020/12/01 04:55:44;;;;;;;2.30;1.70;;;4.10;99.90;;;;;;5093703;28;20378;-74
2020/12/01 04:58:39;;;;;;;1.92;1.50;;;3.70;99.90;;;;;;5092823;28;20409;-74
2020/12/01 05:01:25;;;;;;;2.50;2.00;;;3.80;99.90;;;;;;5091844;28;20386;-77
2020/12/01 05:04:33;;;;;;;2.92;2.20;;;3.90;99.90;;;;;;5093805;28;20378;-74
2020/12/01 05:07:18;;;;;;;2.70;1.75;;;3.90;99.90;;;;;;5093657;28;20388;-74
2020/12/01 05:09:56;;;;;;;2.92;2.08;;;4.00;99.90;;;;;;5093491;28;20381;-74
2020/12/01 05:12:40;;;;;;;3.22;1.90;;;5.50;99.90;;;;;;5092214;28;20421;-75
2020/12/01 05:15:24;;;;;;;3.97;2.50;;;4.80;99.90;;;;;;5091176;28;20746;-78
2020/12/01 05:18:02;;;;;;;6.00;4.20;;;4.50;99.90;;;;;;5092109;28;20386;-74
2020/12/01 05:20:28;;;;;;;6.57;4.28;;;5.20;99.90;;;;;;5092712;28;20382;-74
2020/12/01 05:22:57;;;;;;;6.47;4.50;;;5.90;99.90;;;;;;5091921;28;20866;-74
2020/12/01 05:25:31;;;;;;;6.38;4.40;;;3.70;99.90;;;;;;5092318;28;20378;-76
2020/12/01 05:28:08;;;;;;;6.47;4.10;;;6.30;99.90;;;;;;5091895;28;20386;-75
2020/12/01 05:30:34;;;;;;;7.22;5.30;;;4.40;99.90;;;;;;5093049;28;20398;-75
2020/12/01 05:33:23;;;;;;;7.13;4.40;;;3.40;99.90;;;;;;5093046;28;20410;-75
2020/12/01 05:36:22;;;;;;;7.72;5.47;;;3.30;99.90;;;;;;5093154;28;20432;-74
2020/12/01 05:39:13;;;;;;;9.23;5.28;;;3.00;99.90;;;;;;5092925;28;20386;-74
2020/12/01 05:41:41;;;;;;;9.90;6.33;;;3.30;99.90;;;;;;5092744;28;20394;-76
2020/12/01 05:44:20;;;;;;;8.35;6.03;;;5.10;99.90;;;;;;5092222;28;20387;-77
2020/12/01 05:46:52;;;;;;;10.60;7.13;;;4.60;99.90;;;;;;5092706;28;20405;-75
2020/12/01 05:49:29;;;;;;;10.53;7.33;;;3.00;99.90;;;;;;5092028;28;20401;-79
2020/12/01 05:52:03;;;;;;;13.05;7.82;;;3.00;99.90;;;;;;5092625;28;20406;-80
2020/12/01 05:54:39;;;;;;;11.07;7.60;;;2.50;99.90;;;;;;5090611;28;20394;-78
2020/12/01 05:57:26;;;;;;;10.65;7.93;;;2.20;99.90;;;;;;5092440;28;20390;-82
2020/12/01 06:00:14;;;;;;;12.30;6.90;;;2.30;99.90;;;;;;5092690;28;20390;-85
2020/12/01 06:02:49;;;;;;;9.68;7.30;;;;;;;;;;5091323;28;20469;-81
2020/12/01 06:05:21;;;;;;;9.30;6.40;;;2.00;99.90;;;;;;5091515;28;20374;-80
2020/12/01 06:07:49;;;;;;;7.90;5.03;;;3.70;99.90;;;;;;5090845;28;20511;-80
2020/12/01 06:10:34;;;;;;;8.82;5.07;;;4.20;99.90;;;;;;5091460;28;20378;-80
2020/12/01 06:13:27;;;;;;;8.07;5.75;;;3.90;99.90;;;;;;5092362;28;20398;-79
2020/12/01 06:15:57;;;;;;;7.20;4.68;;;2.10;99.90;;;;;;5084537;28;20407;-78
2020/12/01 06:18:34;;;;;;;6.13;4.10;;;2.20;99.90;;;;;;5071271;28;20833;-81
2020/12/01 06:21:07;;;;;;;8.20;4.90;;;3.00;99.90;;;;;;5071959;28;20408;-78
2020/12/01 06:24:15;;;;;;;6.38;4.85;;;1.90;99.90;;;;;;5085279;28;20378;-82
2020/12/01 06:26:46;;;;;;;6.13;4.13;;;2.00;99.90;;;;;;5092049;28;20386;-82
2020/12/01 06:29:55;;;;;;;6.32;3.92;;;1.70;99.90;;;;;;5092216;28;20390;-80
2020/12/01 06:32:48;;;;;;;6.55;4.30;;;2.00;99.90;;;;;;5089442;28;20483;-81
2020/12/01 06:35:42;;;;;;;6.78;3.75;;;1.90;99.90;;;;;;5090807;28;20374;-77
2020/12/01 06:38:32;;;;;;;5.90;3.90;;;1.90;99.90;;;;;;5090154;28;20519;-87
2020/12/01 06:41:12;;;;;;;5.10;3.85;;;1.90;99.90;;;;;;5091565;28;20374;-74
2020/12/01 06:43:41;;;;;;;5.78;4.28;;;3.50;99.90;;;;;;5091760;28;20402;-75
2020/12/01 06:46:43;;;;;;;4.75;3.13;;;3.50;99.90;;;;;;5091262;28;20447;-76
2020/12/01 06:49:14;;;;;;;3.72;3.30;;;1.90;99.90;;;;;;5090221;28;20488;-82
2020/12/01 06:51:40;;;;;;;4.90;3.33;;;4.10;99.90;;;;;;5091507;28;20433;-75
2020/12/01 06:54:10;;;;;;;4.00;3.20;;;2.00;99.90;;;;;;5091525;28;20707;-73
2020/12/01 06:56:36;;;;;;;3.30;2.63;;;1.90;99.90;;;;;;5091148;28;20379;-73
2020/12/01 06:59:08;;;;;;;4.77;3.27;;;3.40;99.90;;;;;;5090794;28;20381;-74
2020/12/01 07:01:34;;;;;;;5.55;3.10;;;4.70;99.90;;;;;;5090363;28;20488;-73
2020/12/01 07:04:25;;;;;;;4.97;3.10;;;2.30;99.90;;;;;;5091393;28;20383;-72
2020/12/01 07:06:57;;;;;;;4.38;3.28;;;2.40;99.90;;;;;;5081765;28;20397;-73
2020/12/01 07:09:30;;;;;;;3.97;2.70;;;2.10;99.90;;;;;;5089078;28;20382;-75
2020/12/01 07:12:03;;;;;;;4.60;3.40;;;2.10;99.90;;;;;;5090696;28;20425;-75
2020/12/01 07:14:35;;;;;;;3.70;2.80;;;1.90;99.90;;;;;;5090595;28;20386;-74
2020/12/01 07:17:00;;;;;;;3.38;2.60;;;3.10;99.90;;;;;;5088854;28;20468;-74
2020/12/01 07:19:41;;;;;;;3.20;2.40;;;2.00;99.90;;;;;;5090194;28;20846;-73
2020/12/01 07:22:39;;;;;;;3.40;2.30;;;2.30;99.90;;;;;;5091095;28;20385;-75
2020/12/01 07:25:25;;;;;;;2.45;2.25;;;2.30;99.90;;;;;;5061956;28;20477;-77
2020/12/01 07:28:09;;;;;;;2.28;1.88;;;2.30;99.90;;;;;;5089942;28;20448;-76
2020/12/01 07:30:59;;;;;;;1.40;1.30;;;2.30;99.90;;;;;;5088663;28;20609;-77
2020/12/01 07:33:32;;;;;;;2.00;1.80;;;2.20;99.90;;;;;;5086149;28;21830;-77
2020/12/01 07:36:12;;;;;;;1.92;1.60;;;2.00;99.90;;;;;;5089468;28;20401;-77
2020/12/01 07:38:47;;;;;;;2.00;1.40;;;2.20;99.90;;;;;;5089773;28;20387;-76
2020/12/01 07:41:22;;;;;;;1.30;1.20;;;2.70;99.90;;;;;;5090309;28;20378;-82
2020/12/01 07:44:08;;;;;;;1.80;1.40;;;2.40;99.90;;;;;;5089461;28;20739;-77
2020/12/01 07:46:54;;;;;;;1.42;1.25;;;4.00;99.90;;;;;;5079776;28;20991;-77
2020/12/01 07:49:22;;;;;;;2.00;1.80;;;2.50;99.90;;;;;;5088360;28;20762;-77
2020/12/01 07:51:52;;;;;;;1.90;1.60;;;3.70;99.90;;;;;;5088824;28;20398;-76
2020/12/01 07:54:21;;;;;;;2.08;1.70;;;2.30;99.90;;;;;;5090019;28;20405;-77
2020/12/01 07:56:47;;;;;;;2.15;1.80;;;2.20;99.90;;;;;;5089250;28;20404;-76
2020/12/01 07:59:13;;;;;;;3.83;1.77;;;3.80;99.90;;;;;;5089064;28;20866;-80
2020/12/01 08:01:41;;;;;;;1.60;1.40;;;2.10;99.90;;;;;;5090202;28;20843;-76
2020/12/01 08:04:16;;;;;;;1.23;1.10;;;2.20;99.90;;;;;;5090573;28;20378;-78
2020/12/01 08:06:43;;;;;;;1.38;1.20;;;2.30;99.90;;;;;;5090721;28;20382;-77
2020/12/01 08:09:18;;;;;;;1.40;1.30;;;2.40;99.90;;;;;;5090317;28;20385;-76
2020/12/01 08:11:47;;;;;;;1.50;1.40;;;2.50;99.90;;;;;;5090566;28;20402;-77
2020/12/01 08:14:14;;;;;;;1.45;1.35;;;2.40;99.90;;;;;;5090595;28;20456;-81
2020/12/01 08:16:42;;;;;;;3.40;1.40;;;2.50;99.90;;;;;;5089837;28;20878;-76
2020/12/01 08:19:12;;;;;;;1.83;1.38;;;5.00;99.90;;;;;;5090738;28;20378;-78
2020/12/01 08:21:43;;;;;;;2.07;1.77;;;3.50;99.90;;;;;;5089813;28;20476;-77
2020/12/01 08:24:16;;;;;;;2.17;1.85;;;2.80;99.90;;;;;;5090402;28;20412;-77
2020/12/01 08:26:43;;;;;;;3.28;2.20;;;4.00;99.90;;;;;;5090655;28;20469;-77
2020/12/01 08:29:26;;;;;;;3.33;1.85;;;4.30;99.90;;;;;;5090578;28;20382;-77
2020/12/01 08:32:37;;;;;;;2.67;2.00;;;2.10;99.90;;;;;;5088441;28;20422;-77
2020/12/01 08:35:17;;;;;;;2.90;1.80;;;2.20;99.90;;;;;;5009600;28;20416;-76
2020/12/01 08:38:19;;;;;;;2.22;1.83;;;2.50;99.90;;;;;;5084625;28;20402;-76
2020/12/01 08:40:57;;;;;;;3.03;2.03;;;2.40;99.90;;;;;;5094006;28;20379;-75
2020/12/01 08:43:49;;;;;;;3.55;2.40;;;4.30;99.90;;;;;;5093016;28;20473;-77
2020/12/01 08:46:40;;;;;;;2.33;2.00;;;2.00;99.90;;;;;;5089432;28;20420;-79
2020/12/01 08:49:23;;;;;;;2.70;2.30;;;2.50;99.90;;;;;;5093917;28;20382;-76
2020/12/01 08:51:48;;;;;;;2.72;2.30;;;4.60;99.90;;;;;;5093920;28;20432;-75
2020/12/01 08:54:19;;;;;;;3.10;2.30;;;2.50;99.90;;;;;;5092650;28;20440;-77
2020/12/01 08:56:48;;;;;;;3.55;2.42;;;2.60;99.90;;;;;;5093691;28;20382;-75
2020/12/01 08:59:34;;;;;;;3.80;2.80;;;5.20;99.90;;;;;;5093740;28;20382;-75
2020/12/01 09:02:03;;;;;;;2.35;2.10;;;2.60;99.90;;;;;;5093928;28;20413;-76
2020/12/01 09:04:32;;;;;;;2.95;2.20;;;2.70;99.90;;;;;;5092623;28;20473;-76
2020/12/01 09:07:27;;;;;;;2.88;2.20;;;2.40;99.90;;;;;;5093374;28;20455;-75
2020/12/01 09:10:07;;;;;;;2.53;1.92;;;2.80;99.90;;;;;;5091268;28;20531;-76
2020/12/01 09:12:42;;;;;;;2.45;2.08;;;2.80;99.90;;;;;;5092631;28;20773;-74
2020/12/01 09:15:36;;;;;;;1.80;1.50;;;2.90;99.90;;;;;;5093672;28;20456;-75
2020/12/01 09:21:00;;;;;;;2.20;2.00;;;3.10;99.90;;;;;;5090150;28;20447;-75
2020/12/01 09:23:35;;;;;;;2.85;1.90;;;3.10;99.90;;;;;;5071874;28;20384;-75
2020/12/01 09:26:14;;;;;;;2.10;1.80;;;3.00;99.90;;;;;;5073857;28;20371;-75
2020/12/01 09:28:47;;;;;;;2.40;2.20;;;3.10;99.90;;;;;;5076795;28;20372;-75
2020/12/01 09:31:13;;;;;;;2.10;1.90;;;2.90;99.90;;;;;;5071525;28;20410;-74
2020/12/01 09:33:39;;;;;;;2.80;2.13;;;3.00;99.90;;;;;;5072201;28;20411;-74
2020/12/01 09:36:05;;;;;;;2.47;2.08;;;3.00;99.90;;;;;;5082030;28;20404;-75
2020/12/01 09:38:31;;;;;;;3.03;2.15;;;3.00;99.90;;;;;;5091910;28;20386;-76
2020/12/01 09:40:57;;;;;;;2.70;2.20;;;2.80;99.90;;;;;;5092988;28;20382;-75
2020/12/01 09:43:40;;;;;;;2.75;2.40;;;3.10;99.90;;;;;;5092159;28;20393;-75
2020/12/01 09:46:10;;;;;;;3.00;2.67;;;2.80;99.90;;;;;;5092580;28;20547;-74
2020/12/01 09:48:39;;;;;;;3.30;2.30;;;2.90;99.90;;;;;;5091960;28;20398;-75
2020/12/01 09:51:05;;;;;;;3.38;2.30;;;2.90;99.90;;;;;;5092791;28;20381;-75
2020/12/01 10:29:21;;;;;;;2.97;2.45;;;2.90;99.90;;;;;;5071446;28;20741;-74
2020/12/01 10:36:21;;;;;;;2.80;2.50;;;2.90;99.90;;;;;;5091725;28;20957;-75
2020/12/01 10:38:47;;;;;;;2.30;1.80;;;2.90;99.90;;;;;;5090010;28;20882;-75
2020/12/01 10:41:13;;;;;;;2.40;2.00;;;3.50;99.90;;;;;;5088541;28;20366;-74
2020/12/01 10:43:41;;;;;;;2.55;1.83;;;3.00;99.90;;;;;;5078159;28;20376;-75
2020/12/01 10:46:09;;;;;;;2.35;2.00;;;3.00;99.90;;;;;;5071468;28;20389;-74
2020/12/01 10:48:35;;;;;;;2.10;1.60;;;3.00;99.90;;;;;;5070526;28;20375;-74
2020/12/01 10:51:00;;;;;;;1.77;1.40;;;3.10;99.90;;;;;;5071205;28;20402;-74
2020/12/01 10:53:26;;;;;;;2.23;1.60;;;4.30;99.90;;;;;;5070308;28;20421;-76
2020/12/01 10:55:52;;;;;;;2.30;1.70;;;2.90;99.90;;;;;;5071071;28;20450;-74
2020/12/01 10:58:17;;;;;;;2.38;1.80;;;4.40;99.90;;;;;;5070303;28;20438;-75
2020/12/01 11:00:43;;;;;;;1.58;1.48;;;2.90;99.90;;;;;;5070645;28;20387;-74
2020/12/01 11:03:09;;;;;;;3.00;1.77;;;2.90;99.90;;;;;;5071087;28;20419;-74
2020/12/01 11:05:34;;;;;;;1.70;1.60;;;3.50;99.90;;;;;;5070324;28;20729;-74
2020/12/01 11:08:00;;;;;;;2.80;1.83;;;4.80;99.90;;;;;;5071175;28;20415;-74
2020/12/01 11:10:27;;;;;;;2.13;1.83;;;3.20;99.90;;;;;;5069284;28;20790;-77
2020/12/01 11:12:53;;;;;;;1.85;1.60;;;3.10;99.90;;;;;;5071045;28;20399;-75
2020/12/01 11:15:19;;;;;;;1.73;1.50;;;4.60;99.90;;;;;;5071120;28;20387;-75
2020/12/01 11:17:45;;;;;;;1.95;1.40;;;3.30;99.90;;;;;;5069966;28;20457;-75
2020/12/01 11:20:12;;;;;;;1.67;1.57;;;3.80;99.90;;;;;;5070967;28;20387;-75
2020/12/01 11:22:38;;;;;;;1.60;1.50;;;3.10;99.90;;;;;;5070392;28;20387;-75
2020/12/01 11:25:05;;;;;;;1.75;1.65;;;3.00;99.90;;;;;;5069424;28;20407;-75
2020/12/01 11:27:30;;;;;;;1.77;1.60;;;4.30;99.90;;;;;;5069724;28;20387;-77
2020/12/01 11:29:56;;;;;;;2.08;1.58;;;3.70;99.90;;;;;;5070431;28;20919;-75
2020/12/01 11:32:22;;;;;;;5.33;4.10;;;3.50;99.90;;;;;;5070099;28;20431;-76
2020/12/01 11:34:48;;;;;;;5.53;3.90;;;4.10;99.90;;;;;;5069881;28;20402;-75
2020/12/01 11:37:14;;;;;;;4.47;3.75;;;4.90;99.90;;;;;;5070353;28;20372;-75
2020/12/01 11:39:40;;;;;;;3.90;3.10;;;;;;;;;;5069736;28;20379;-75
2020/12/01 11:42:05;;;;;;;2.80;2.40;;;3.40;99.90;;;;;;5070972;28;20892;-75
2020/12/01 11:44:31;;;;;;;4.88;3.30;;;5.70;99.90;;;;;;5069769;28;20388;-75
2020/12/01 11:46:57;;;;;;;3.10;2.80;;;3.40;99.90;;;;;;5081149;28;20383;-74
2020/12/01 11:49:23;;;;;;;3.40;2.60;;;3.80;99.90;;;;;;5090614;28;20374;-75
2020/12/01 11:51:49;;;;;;;3.00;2.70;;;3.50;99.90;;;;;;5089093;28;21011;-75
2020/12/01 11:54:15;;;;;;;3.00;2.70;;;5.80;99.90;;;;;;5068778;28;20880;-74
2020/12/01 11:56:41;;;;;;;3.40;2.42;;;3.50;99.90;;;;;;5076192;28;20437;-74
2020/12/01 11:59:07;;;;;;;3.10;2.50;;;3.80;99.90;;;;;;5090083;28;20863;-76
2020/12/01 12:01:35;;;;;;;3.00;2.60;;;3.40;99.90;;;;;;5089180;28;20885;-77
2020/12/01 12:04:00;;;;;;;3.90;2.85;;;5.20;99.90;;;;;;5090919;28;20389;-78
2020/12/01 12:06:26;;;;;;;2.60;2.40;;;5.50;99.90;;;;;;5090677;28;20861;-77
2020/12/01 12:08:52;;;;;;;2.53;2.33;;;;;;;;;;5091221;28;20374;-77
2020/12/01 12:11:18;;;;;;;2.80;2.50;;;3.00;99.90;;;;;;5093415;28;20868;-77
2020/12/01 12:13:46;;;;;;;2.83;2.60;;;4.70;99.90;;;;;;5093305;28;20410;-75
2020/12/01 12:16:13;;;;;;;2.88;2.45;;;3.00;99.90;;;;;;5094314;28;20385;-75
2020/12/01 12:18:39;;;;;;;2.47;2.28;;;3.50;99.90;;;;;;5093650;28;20390;-74
2020/12/01 12:21:04;;;;;;;2.97;2.20;;;3.70;99.90;;;;;;5094371;28;20406;-74
2020/12/01 12:23:30;;;;;;;2.37;2.17;;;3.70;99.90;;;;;;5093973;28;20382;-77
2020/12/01 12:25:56;;;;;;;3.80;3.00;;;3.40;99.90;;;;;;5082949;28;20388;-73
2020/12/01 12:28:21;;;;;;;2.70;2.50;;;4.80;99.90;;;;;;5084895;28;20386;-73
2020/12/01 12:30:47;;;;;;;3.20;2.20;;;5.30;99.90;;;;;;5082868;28;20399;-73
2020/12/01 12:33:14;;;;;;;3.38;2.70;;;4.10;99.90;;;;;;5073361;28;20427;-73
2020/12/01 12:35:39;;;;;;;2.70;2.13;;;3.70;99.90;;;;;;5079179;28;20784;-73
2020/12/01 12:38:05;;;;;;;2.90;2.60;;;3.50;99.90;;;;;;5086776;28;20380;-73
2020/12/01 12:40:31;;;;;;;2.72;2.20;;;4.60;99.90;;;;;;5073128;28;20477;-76
2020/12/01 12:42:57;;;;;;;2.60;2.40;;;5.40;99.90;;;;;;5073750;28;20387;-74
2020/12/01 12:45:22;;;;;;;2.80;2.28;;;3.30;99.90;;;;;;5073351;28;20383;-73
2020/12/01 12:47:48;;;;;;;3.05;2.75;;;4.10;99.90;;;;;;5090576;28;20520;-73
2020/12/01 12:50:14;;;;;;;3.40;2.60;;;3.80;99.90;;;;;;5093856;28;20757;-73
2020/12/01 12:52:39;;;;;;;4.10;2.20;;;5.40;99.90;;;;;;5091567;28;20420;-73
2020/12/01 12:55:07;;;;;;;2.87;2.30;;;4.80;99.90;;;;;;5094164;28;20382;-73
2020/12/01 12:57:32;;;;;;;2.72;2.50;;;5.70;99.90;;;;;;5093503;28;20821;-76
2020/12/01 12:59:58;;;;;;;4.13;2.50;;;4.00;99.90;;;;;;5093453;28;20421;-73
2020/12/01 13:02:24;;;;;;;3.60;2.63;;;4.40;99.90;;;;;;5093662;28;20773;-73
2020/12/01 13:04:50;;;;;;;2.58;2.20;;;5.80;99.90;;;;;;5092573;28;20409;-74
2020/12/01 13:07:15;;;;;;;3.08;2.65;;;4.00;99.90;;;;;;5093366;28;20461;-73
2020/12/01 13:09:41;;;;;;;2.80;2.50;;;4.50;99.90;;;;;;5092474;28;20818;-75
2020/12/01 13:12:07;;;;;;;3.90;2.95;;;4.20;99.90;;;;;;5093557;28;20882;-73
2020/12/01 13:14:32;;;;;;;3.70;3.10;;;3.80;99.90;;;;;;5093012;28;20803;-75
2020/12/01 13:16:58;;;;;;;3.20;2.90;;;4.00;99.90;;;;;;5093003;28;20390;-73
2020/12/01 13:19:24;;;;;;;2.93;2.50;;;3.60;99.90;;;;;;5092960;28;20374;-74
2020/12/01 13:21:49;;;;;;;3.30;2.60;;;3.90;99.90;;;;;;5091736;28;20382;-74
2020/12/01 13:24:15;;;;;;;2.72;2.50;;;5.60;99.90;;;;;;5093211;28;20366;-73
2020/12/01 13:26:41;;;;;;;2.75;2.47;;;4.10;99.90;;;;;;5092351;28;20464;-74
2020/12/01 13:29:07;;;;;;;2.50;2.30;;;3.80;99.90;;;;;;5092313;28;20382;-74
2020/12/01 13:31:32;;;;;;;2.77;2.40;;;4.10;99.90;;;;;;5092736;28;20382;-76
2020/12/01 13:33:58;;;;;;;2.60;2.28;;;3.80;99.90;;;;;;5091119;28;20410;-74
2020/12/01 13:36:26;;;;;;;3.60;3.25;;;3.80;99.90;;;;;;5093158;28;20787;-75
2020/12/01 13:38:51;;;;;;;2.92;2.65;;;3.70;99.90;;;;;;5090913;28;20476;-75
2020/12/01 13:41:18;;;;;;;3.40;2.90;;;3.40;99.90;;;;;;5092824;28;20474;-74
2020/12/01 13:43:44;;;;;;;3.38;2.85;;;3.80;99.90;;;;;;5092078;28;20377;-75
2020/12/01 13:46:10;;;;;;;2.88;2.60;;;3.70;99.90;;;;;;5092554;28;20863;-75
2020/12/01 13:48:36;;;;;;;3.30;3.00;;;3.90;99.90;;;;;;5092244;28;20374;-77
2020/12/01 13:51:02;;;;;;;3.38;2.60;;;3.60;99.90;;;;;;5092903;28;20378;-75
2020/12/01 13:53:29;;;;;;;3.00;2.70;;;4.10;99.90;;;;;;5092340;28;20463;-75
2020/12/01 13:55:55;;;;;;;2.80;2.60;;;3.80;99.90;;;;;;5087921;28;20402;-75
2020/12/01 13:58:21;;;;;;;3.80;3.10;;;3.70;99.90;;;;;;5092181;28;20462;-75
2020/12/01 14:00:47;;;;;;;2.60;2.33;;;3.80;99.90;;;;;;5091716;28;20426;-75